createdAt,value
2018-08-03T00:00:14.601Z,24.56
2018-08-03T00:01:14.633Z,24.58
2018-08-03T00:02:14.667Z,24.61
2018-08-03T00:03:14.850Z,24.55
2018-08-03T00:04:14.732Z,24.55
2018-08-03T00:05:14.766Z,24.54
2018-08-03T00:06:14.796Z,24.45
2018-08-03T00:07:14.831Z,24.48
2018-08-03T00:08:14.862Z,24.44
2018-08-03T00:09:14.895Z,24.40
2018-08-03T00:10:14.934Z,24.44
2018-08-03T00:11:14.962Z,24.36
2018-08-03T00:12:14.995Z,24.36
2018-08-03T00:13:15.031Z,24.37
2018-08-03T00:14:15.061Z,24.34
2018-08-03T00:15:15.092Z,24.34
2018-08-03T00:16:15.129Z,24.33
2018-08-03T00:17:15.165Z,24.39
2018-08-03T00:18:15.193Z,24.34
2018-08-03T00:19:15.227Z,24.36
2018-08-03T00:20:15.261Z,24.33
2018-08-03T00:21:15.295Z,24.26
2018-08-03T00:22:15.325Z,24.26
2018-08-03T00:23:15.359Z,24.27
2018-08-03T00:24:15.392Z,24.29
2018-08-03T00:25:15.424Z,24.24
2018-08-03T00:26:15.461Z,24.19
2018-08-03T00:27:15.490Z,24.18
2018-08-03T00:28:15.526Z,24.24
2018-08-03T00:29:15.554Z,24.14
2018-08-03T00:30:15.590Z,24.19
2018-08-03T00:31:15.626Z,24.15
2018-08-03T00:32:15.656Z,24.18
2018-08-03T00:33:15.687Z,24.15
2018-08-03T00:34:15.719Z,24.04
2018-08-03T00:35:15.751Z,24.04
2018-08-03T00:36:15.788Z,24.14
2018-08-03T00:37:15.818Z,24.03
2018-08-03T00:38:15.857Z,24.03
2018-08-03T00:39:15.885Z,24.04
2018-08-03T00:40:15.918Z,24.08
2018-08-03T00:41:15.952Z,24.04
2018-08-03T00:42:15.985Z,24.00
2018-08-03T00:43:16.018Z,24.03
2018-08-03T00:44:16.050Z,23.97
2018-08-03T00:45:16.081Z,24.08
2018-08-03T00:46:16.116Z,24.03
2018-08-03T00:47:16.146Z,24.08
2018-08-03T00:48:16.179Z,23.97
2018-08-03T00:49:16.215Z,24.02
2018-08-03T00:50:16.245Z,24.00
2018-08-03T00:51:16.280Z,23.99
2018-08-03T00:52:16.313Z,23.93
2018-08-03T00:53:16.346Z,23.93
2018-08-03T00:54:16.376Z,23.93
2018-08-03T00:55:16.411Z,23.89
2018-08-03T00:56:16.445Z,23.92
2018-08-03T00:57:16.478Z,23.82
2018-08-03T00:58:16.512Z,23.82
2018-08-03T00:59:16.539Z,23.84
2018-08-03T01:00:16.574Z,23.74
2018-08-03T01:01:16.609Z,23.78
2018-08-03T01:02:16.642Z,23.75
2018-08-03T01:03:16.670Z,23.79
2018-08-03T01:04:16.703Z,23.67
2018-08-03T01:05:16.735Z,23.66
2018-08-03T01:06:16.769Z,23.64
2018-08-03T01:07:16.806Z,23.72
2018-08-03T01:08:16.835Z,23.71
2018-08-03T01:09:16.866Z,23.66
2018-08-03T01:10:16.905Z,23.55
2018-08-03T01:11:16.934Z,23.64
2018-08-03T01:12:16.965Z,23.62
2018-08-03T01:13:17.001Z,23.60
2018-08-03T01:14:17.049Z,23.63
2018-08-03T01:15:17.068Z,23.53
2018-08-03T01:16:17.098Z,23.56
2018-08-03T01:17:17.132Z,23.55
2018-08-03T01:18:17.161Z,23.55
2018-08-03T01:19:17.195Z,23.56
2018-08-03T01:20:17.229Z,23.48
2018-08-03T01:21:17.259Z,23.48
2018-08-03T01:22:17.292Z,23.42
2018-08-03T01:23:17.329Z,23.44
2018-08-03T01:24:17.357Z,23.48
2018-08-03T01:25:17.389Z,23.44
2018-08-03T01:26:17.424Z,23.41
2018-08-03T01:27:17.453Z,23.50
2018-08-03T01:28:17.489Z,23.41
2018-08-03T01:29:17.519Z,23.41
2018-08-03T01:30:17.555Z,23.40
2018-08-03T01:31:17.589Z,23.41
2018-08-03T01:32:17.617Z,23.38
2018-08-03T01:33:17.649Z,23.40
2018-08-03T01:34:17.682Z,23.29
2018-08-03T01:35:17.714Z,23.26
2018-08-03T01:36:17.747Z,23.28
2018-08-03T01:37:17.782Z,23.29
2018-08-03T01:38:17.815Z,23.32
2018-08-03T01:39:17.844Z,23.29
2018-08-03T01:40:17.880Z,23.40
2018-08-03T01:41:17.910Z,23.35
2018-08-03T01:42:17.946Z,23.37
2018-08-03T01:43:17.976Z,23.25
2018-08-03T01:44:18.009Z,23.28
2018-08-03T01:45:18.043Z,23.28
2018-08-03T01:46:18.078Z,23.26
2018-08-03T01:47:18.106Z,23.26
2018-08-03T01:48:18.137Z,23.25
2018-08-03T01:49:18.170Z,23.28
2018-08-03T01:50:18.205Z,23.24
2018-08-03T01:51:18.235Z,23.28
2018-08-03T01:52:18.271Z,23.22
2018-08-03T01:53:18.302Z,23.21
2018-08-03T01:54:18.333Z,23.15
2018-08-03T01:55:18.365Z,23.22
2018-08-03T01:56:18.403Z,23.21
2018-08-03T01:57:18.433Z,23.21
2018-08-03T01:58:18.469Z,23.14
2018-08-03T01:59:18.495Z,23.18
2018-08-03T02:00:18.532Z,23.16
2018-08-03T02:01:18.562Z,23.24
2018-08-03T02:02:18.595Z,23.15
2018-08-03T02:03:18.675Z,23.21
2018-08-03T02:04:18.659Z,23.22
2018-08-03T02:05:18.690Z,23.10
2018-08-03T02:06:18.727Z,23.07
2018-08-03T02:07:18.755Z,23.06
2018-08-03T02:08:18.791Z,23.15
2018-08-03T02:09:18.823Z,23.16
2018-08-03T02:10:18.857Z,23.01
2018-08-03T02:11:18.885Z,23.07
2018-08-03T02:12:18.920Z,23.06
2018-08-03T02:13:18.950Z,23.04
2018-08-03T02:14:18.982Z,22.97
2018-08-03T02:15:19.014Z,23.03
2018-08-03T02:16:19.048Z,23.00
2018-08-03T02:17:19.097Z,23.01
2018-08-03T02:18:19.113Z,23.03
2018-08-03T02:19:19.149Z,22.96
2018-08-03T02:20:19.180Z,22.94
2018-08-03T02:21:19.212Z,23.01
2018-08-03T02:22:19.244Z,22.96
2018-08-03T02:23:19.276Z,23.00
2018-08-03T02:24:19.306Z,22.99
2018-08-03T02:25:19.339Z,22.92
2018-08-03T02:26:19.375Z,22.89
2018-08-03T02:27:19.407Z,23.00
2018-08-03T02:28:19.436Z,22.92
2018-08-03T02:29:19.469Z,22.92
2018-08-03T02:30:19.502Z,22.94
2018-08-03T02:31:19.535Z,22.96
2018-08-03T02:32:19.566Z,22.97
2018-08-03T02:33:19.600Z,22.88
2018-08-03T02:34:19.634Z,22.89
2018-08-03T02:35:19.662Z,22.92
2018-08-03T02:36:19.696Z,22.92
2018-08-03T02:37:19.730Z,22.92
2018-08-03T02:38:19.760Z,22.92
2018-08-03T02:39:19.795Z,22.92
2018-08-03T02:40:19.860Z,22.89
2018-08-03T02:41:19.860Z,22.91
2018-08-03T02:42:19.890Z,22.91
2018-08-03T02:43:19.925Z,22.82
2018-08-03T02:44:19.957Z,22.89
2018-08-03T02:45:19.987Z,22.76
2018-08-03T02:46:20.026Z,22.73
2018-08-03T02:47:20.051Z,22.78
2018-08-03T02:48:20.086Z,22.75
2018-08-03T02:49:20.116Z,22.88
2018-08-03T02:50:20.147Z,22.75
2018-08-03T02:51:20.183Z,22.78
2018-08-03T02:52:20.216Z,22.79
2018-08-03T02:53:20.247Z,22.86
2018-08-03T02:54:20.281Z,22.82
2018-08-03T02:55:20.313Z,22.71
2018-08-03T02:56:20.346Z,22.75
2018-08-03T02:57:20.374Z,22.69
2018-08-03T02:58:20.407Z,22.73
2018-08-03T02:59:20.439Z,22.75
2018-08-03T03:00:20.475Z,22.75
2018-08-03T03:01:20.504Z,22.64
2018-08-03T03:02:20.536Z,22.70
2018-08-03T03:03:20.568Z,22.63
2018-08-03T03:04:20.601Z,22.63
2018-08-03T03:05:20.632Z,22.63
2018-08-03T03:06:20.660Z,22.59
2018-08-03T03:07:20.718Z,22.59
2018-08-03T03:08:20.715Z,22.60
2018-08-03T03:09:20.741Z,22.55
2018-08-03T03:10:20.773Z,22.57
2018-08-03T03:11:20.797Z,22.59
2018-08-03T03:12:20.823Z,22.55
2018-08-03T03:13:20.854Z,22.52
2018-08-03T03:14:20.880Z,22.59
2018-08-03T03:15:20.905Z,22.51
2018-08-03T03:16:20.937Z,22.60
2018-08-03T03:17:20.960Z,22.55
2018-08-03T03:18:20.993Z,22.48
2018-08-03T03:19:21.034Z,22.51
2018-08-03T03:20:21.044Z,22.51
2018-08-03T03:21:21.072Z,22.46
2018-08-03T03:22:21.103Z,22.51
2018-08-03T03:23:21.127Z,22.41
2018-08-03T03:24:21.155Z,22.39
2018-08-03T03:25:21.180Z,22.39
2018-08-03T03:26:21.208Z,22.34
2018-08-03T03:27:21.252Z,22.30
2018-08-03T03:28:21.261Z,22.29
2018-08-03T03:29:21.289Z,22.39
2018-08-03T03:30:21.323Z,22.34
2018-08-03T03:31:21.345Z,22.31
2018-08-03T03:32:21.373Z,22.31
2018-08-03T03:33:21.429Z,22.24
2018-08-03T03:34:21.427Z,22.24
2018-08-03T03:35:21.453Z,22.36
2018-08-03T03:36:21.481Z,22.30
2018-08-03T03:37:21.507Z,22.30
2018-08-03T03:38:21.537Z,22.29
2018-08-03T03:39:21.560Z,22.30
2018-08-03T03:40:21.588Z,22.33
2018-08-03T03:41:21.615Z,22.29
2018-08-03T03:42:21.646Z,22.29
2018-08-03T03:43:21.669Z,22.27
2018-08-03T03:44:21.700Z,22.20
2018-08-03T03:45:21.727Z,22.24
2018-08-03T03:46:21.754Z,22.18
2018-08-03T03:47:21.782Z,22.18
2018-08-03T03:48:21.811Z,22.22
2018-08-03T03:49:21.834Z,22.09
2018-08-03T03:50:21.860Z,22.08
2018-08-03T03:51:21.887Z,22.08
2018-08-03T03:52:21.917Z,22.12
2018-08-03T03:53:21.944Z,22.08
2018-08-03T03:54:21.971Z,21.96
2018-08-03T03:55:21.996Z,21.94
2018-08-03T03:56:22.029Z,22.04
2018-08-03T03:57:22.049Z,21.97
2018-08-03T03:58:22.077Z,22.05
2018-08-03T03:59:22.145Z,22.02
2018-08-03T04:00:22.133Z,22.02
2018-08-03T04:01:22.160Z,21.94
2018-08-03T04:02:22.187Z,21.97
2018-08-03T04:03:22.212Z,21.99
2018-08-03T04:04:22.247Z,22.00
2018-08-03T04:05:22.269Z,22.04
2018-08-03T04:06:22.296Z,22.07
2018-08-03T04:07:22.320Z,22.05
2018-08-03T04:08:22.346Z,22.08
2018-08-03T04:09:22.372Z,22.02
2018-08-03T04:10:22.403Z,22.00
2018-08-03T04:11:22.431Z,21.96
2018-08-03T04:12:22.528Z,22.08
2018-08-03T04:13:22.487Z,21.94
2018-08-03T04:14:22.511Z,21.99
2018-08-03T04:15:22.538Z,22.05
2018-08-03T04:16:22.564Z,22.05
2018-08-03T04:17:22.591Z,22.08
2018-08-03T04:18:22.616Z,22.07
2018-08-03T04:19:22.645Z,22.04
2018-08-03T04:20:22.673Z,22.12
2018-08-03T04:21:22.697Z,22.08
2018-08-03T04:22:22.727Z,22.08
2018-08-03T04:23:22.750Z,22.08
2018-08-03T04:24:22.777Z,22.09
2018-08-03T04:25:22.808Z,22.05
2018-08-03T04:26:22.832Z,22.08
2018-08-03T04:27:22.858Z,22.08
2018-08-03T04:28:22.886Z,22.08
2018-08-03T04:29:22.913Z,22.15
2018-08-03T04:30:22.940Z,22.12
2018-08-03T04:31:22.969Z,22.20
2018-08-03T04:32:22.994Z,22.26
2018-08-03T04:33:23.026Z,22.26
2018-08-03T04:34:23.051Z,22.26
2018-08-03T04:35:23.078Z,22.20
2018-08-03T04:36:23.105Z,22.16
2018-08-03T04:37:23.129Z,22.27
2018-08-03T04:38:23.157Z,22.39
2018-08-03T04:39:23.184Z,22.24
2018-08-03T04:40:23.211Z,22.33
2018-08-03T04:41:23.239Z,22.33
2018-08-03T04:42:23.344Z,22.29
2018-08-03T04:43:23.290Z,22.33
2018-08-03T04:44:23.420Z,22.46
2018-08-03T04:45:23.346Z,22.39
2018-08-03T04:46:23.377Z,22.42
2018-08-03T04:47:23.400Z,22.38
2018-08-03T04:48:23.426Z,22.45
2018-08-03T04:49:23.455Z,22.48
2018-08-03T04:50:23.483Z,22.41
2018-08-03T04:51:23.507Z,22.46
2018-08-03T04:52:23.537Z,22.49
2018-08-03T04:53:23.561Z,22.57
2018-08-03T04:54:23.592Z,22.57
2018-08-03T04:55:23.615Z,22.48
2018-08-03T04:56:23.645Z,22.63
2018-08-03T04:57:23.670Z,22.45
2018-08-03T04:58:23.700Z,22.55
2018-08-03T04:59:23.724Z,22.55
2018-08-03T05:00:23.756Z,22.63
2018-08-03T05:01:23.781Z,22.66
2018-08-03T05:02:23.807Z,22.63
2018-08-03T05:03:23.835Z,22.63
2018-08-03T05:04:23.859Z,22.64
2018-08-03T05:05:23.889Z,22.66
2018-08-03T05:06:23.915Z,22.70
2018-08-03T05:07:23.941Z,22.78
2018-08-03T05:08:23.968Z,22.73
2018-08-03T05:09:23.999Z,22.71
2018-08-03T05:10:24.027Z,22.70
2018-08-03T05:11:24.053Z,22.76
2018-08-03T05:12:24.077Z,22.94
2018-08-03T05:13:24.105Z,22.97
2018-08-03T05:14:24.134Z,22.89
2018-08-03T05:15:24.172Z,22.96
2018-08-03T05:16:24.190Z,22.92
2018-08-03T05:17:24.217Z,23.03
2018-08-03T05:18:24.244Z,23.06
2018-08-03T05:19:24.269Z,23.01
2018-08-03T05:20:24.296Z,23.03
2018-08-03T05:21:24.336Z,23.04
2018-08-03T05:22:24.352Z,23.00
2018-08-03T05:23:24.383Z,23.01
2018-08-03T05:24:24.408Z,23.12
2018-08-03T05:25:24.433Z,23.12
2018-08-03T05:26:24.466Z,23.15
2018-08-03T05:27:24.488Z,23.15
2018-08-03T05:28:24.519Z,23.22
2018-08-03T05:29:24.545Z,23.40
2018-08-03T05:30:24.633Z,23.52
2018-08-03T05:31:24.600Z,23.66
2018-08-03T05:32:24.628Z,23.84
2018-08-03T05:33:24.653Z,23.85
2018-08-03T05:34:24.683Z,23.97
2018-08-03T05:35:24.761Z,24.11
2018-08-03T05:36:24.808Z,24.24
2018-08-03T05:37:24.767Z,24.32
2018-08-03T05:38:24.793Z,24.34
2018-08-03T05:39:24.820Z,24.49
2018-08-03T05:40:24.848Z,24.52
2018-08-03T05:41:24.874Z,24.67
2018-08-03T05:42:24.920Z,24.64
2018-08-03T05:43:24.931Z,24.78
2018-08-03T05:44:24.959Z,24.85
2018-08-03T05:45:24.990Z,25.01
2018-08-03T05:46:25.015Z,25.05
2018-08-03T05:47:25.045Z,25.17
2018-08-03T05:48:25.072Z,25.14
2018-08-03T05:49:25.105Z,25.19
2018-08-03T05:50:25.129Z,25.30
2018-08-03T05:51:25.156Z,25.26
2018-08-03T05:52:25.249Z,25.32
2018-08-03T05:53:25.216Z,25.48
2018-08-03T05:54:25.241Z,25.48
2018-08-03T05:55:25.271Z,25.51
2018-08-03T05:56:25.301Z,25.63
2018-08-03T05:57:25.327Z,25.78
2018-08-03T05:58:25.360Z,25.70
2018-08-03T05:59:25.384Z,25.78
2018-08-03T06:00:25.413Z,25.88
2018-08-03T06:01:25.445Z,25.85
2018-08-03T06:02:25.474Z,25.91
2018-08-03T06:03:25.522Z,25.96
2018-08-03T06:04:25.532Z,25.96
2018-08-03T06:05:28.184Z,25.88
2018-08-03T06:06:25.592Z,25.94
2018-08-03T06:07:25.624Z,26.01
2018-08-03T06:08:25.687Z,26.11
2018-08-03T06:09:25.696Z,26.23
2018-08-03T06:10:25.737Z,26.20
2018-08-03T06:11:25.761Z,26.31
2018-08-03T06:12:25.799Z,26.35
2018-08-03T06:13:25.833Z,26.41
2018-08-03T06:14:25.868Z,26.41
2018-08-03T06:15:25.898Z,26.54
2018-08-03T06:16:25.936Z,26.68
2018-08-03T06:17:25.969Z,26.69
2018-08-03T06:18:26.007Z,26.72
2018-08-03T06:19:26.041Z,26.91
2018-08-03T06:20:26.076Z,27.00
2018-08-03T06:21:26.111Z,27.12
2018-08-03T06:22:26.143Z,27.13
2018-08-03T06:23:26.178Z,27.21
2018-08-03T06:24:26.216Z,27.26
2018-08-03T06:25:26.257Z,27.24
2018-08-03T06:26:26.286Z,27.30
2018-08-03T06:27:26.320Z,27.21
2018-08-03T06:28:26.387Z,27.24
2018-08-03T06:29:26.421Z,27.27
2018-08-03T06:30:26.428Z,27.42
2018-08-03T06:31:26.465Z,27.42
2018-08-03T06:32:26.499Z,27.74
2018-08-03T06:33:26.538Z,27.81
2018-08-03T06:34:26.574Z,27.99
2018-08-03T06:35:26.607Z,28.11
2018-08-03T06:36:26.644Z,28.24
2018-08-03T06:37:26.680Z,28.42
2018-08-03T06:38:26.717Z,28.35
2018-08-03T06:39:26.754Z,28.51
2018-08-03T06:40:26.796Z,28.61
2018-08-03T06:41:26.829Z,28.72
2018-08-03T06:42:26.861Z,28.70
2018-08-03T06:43:26.903Z,28.72
2018-08-03T06:44:26.937Z,28.88
2018-08-03T06:45:26.976Z,28.68
2018-08-03T06:46:27.011Z,28.65
2018-08-03T06:47:27.049Z,28.83
2018-08-03T06:48:27.125Z,28.57
2018-08-03T06:49:27.122Z,28.68
2018-08-03T06:50:27.159Z,28.70
2018-08-03T06:51:27.196Z,28.86
2018-08-03T06:52:27.234Z,28.94
2018-08-03T06:53:27.271Z,28.92
2018-08-03T06:54:27.309Z,29.08
2018-08-03T06:55:27.346Z,29.24
2018-08-03T06:56:27.388Z,29.26
2018-08-03T06:57:27.444Z,29.38
2018-08-03T06:58:27.460Z,29.32
2018-08-03T06:59:27.499Z,29.29
2018-08-03T07:00:27.551Z,28.92
2018-08-03T07:01:27.576Z,29.35
2018-08-03T07:02:27.610Z,29.51
2018-08-03T07:03:27.647Z,29.60
2018-08-03T07:04:27.720Z,29.85
2018-08-03T07:05:27.726Z,29.98
2018-08-03T07:06:27.763Z,30.02
2018-08-03T07:07:27.799Z,30.04
2018-08-03T07:08:27.877Z,30.29
2018-08-03T07:09:27.875Z,30.51
2018-08-03T07:10:27.920Z,30.49
2018-08-03T07:11:27.953Z,30.32
2018-08-03T07:12:27.994Z,30.22
2018-08-03T07:13:28.035Z,30.24
2018-08-03T07:14:28.080Z,30.60
2018-08-03T07:15:31.741Z,30.89
2018-08-03T07:16:28.143Z,31.01
2018-08-03T07:17:28.183Z,31.08
2018-08-03T07:18:28.217Z,31.08
2018-08-03T07:19:28.262Z,31.10
2018-08-03T07:20:28.419Z,31.26
2018-08-03T07:21:28.336Z,31.40
2018-08-03T07:22:28.374Z,31.43
2018-08-03T07:23:28.412Z,31.50
2018-08-03T07:24:28.452Z,31.45
2018-08-03T07:25:28.486Z,31.74
2018-08-03T07:26:29.337Z,31.60
2018-08-03T07:27:28.568Z,31.62
2018-08-03T07:28:31.281Z,31.65
2018-08-03T07:29:28.633Z,31.25
2018-08-03T07:30:28.672Z,31.44
2018-08-03T07:32:32.380Z,31.78
2018-08-03T07:33:29.388Z,31.72
2018-08-03T07:34:28.821Z,32.05
2018-08-03T07:35:28.851Z,32.05
2018-08-03T07:36:28.888Z,32.03
2018-08-03T07:37:29.024Z,31.97
2018-08-03T07:38:28.959Z,32.16
2018-08-03T07:39:28.992Z,32.08
2018-08-03T07:40:29.027Z,32.24
2018-08-03T07:41:29.060Z,32.32
2018-08-03T07:42:29.096Z,32.59
2018-08-03T07:43:29.196Z,32.80
2018-08-03T07:44:29.175Z,32.61
2018-08-03T07:45:29.199Z,33.03
2018-08-03T07:46:29.237Z,33.09
2018-08-03T07:47:29.273Z,33.01
2018-08-03T07:50:29.381Z,33.31
2018-08-03T07:51:29.421Z,33.17
2018-08-03T07:52:29.470Z,33.41
2018-08-03T07:53:29.500Z,33.36
2018-08-03T07:55:37.973Z,33.40
2018-08-03T07:56:37.204Z,33.44
2018-08-03T08:01:37.422Z,33.69
2018-08-03T08:02:40.074Z,33.69
2018-08-03T08:03:37.486Z,33.75
2018-08-03T08:05:41.597Z,34.03
2018-08-03T08:07:33.611Z,34.21
2018-08-03T08:08:34.320Z,34.19
2018-08-03T08:09:30.300Z,34.41
2018-08-03T08:10:30.297Z,34.41
2018-08-03T08:11:30.323Z,34.66
2018-08-03T08:12:30.360Z,34.94
2018-08-03T08:13:30.398Z,34.52
2018-08-03T08:14:30.434Z,34.51
2018-08-03T08:15:30.478Z,34.26
2018-08-03T08:16:30.506Z,34.32
2018-08-03T08:17:30.539Z,34.27
2018-08-03T08:18:30.581Z,34.27
2018-08-03T08:19:30.611Z,34.08
2018-08-03T08:20:30.651Z,33.99
2018-08-03T08:21:30.689Z,34.00
2018-08-03T08:22:30.721Z,34.06
2018-08-03T08:23:30.757Z,34.26
2018-08-03T08:24:30.797Z,33.96
2018-08-03T08:25:30.832Z,34.39
2018-08-03T08:26:30.869Z,34.46
2018-08-03T08:27:30.904Z,34.81
2018-08-03T08:28:30.939Z,34.99
2018-08-03T08:29:30.979Z,35.05
2018-08-03T08:30:31.015Z,35.16
2018-08-03T08:31:31.062Z,35.02
2018-08-03T08:32:31.088Z,35.12
2018-08-03T08:33:31.123Z,35.11
2018-08-03T08:34:31.162Z,35.43
2018-08-03T08:35:31.198Z,35.64
2018-08-03T08:36:31.235Z,35.82
2018-08-03T08:37:31.272Z,35.74
2018-08-03T08:38:31.306Z,35.77
2018-08-03T08:39:31.341Z,35.79
2018-08-03T08:40:31.379Z,35.50
2018-08-03T08:41:31.415Z,35.52
2018-08-03T08:42:31.454Z,35.99
2018-08-03T08:43:31.567Z,35.95
2018-08-03T08:44:31.527Z,35.92
2018-08-03T08:45:31.563Z,36.02
2018-08-03T08:46:31.629Z,36.12
2018-08-03T08:47:31.636Z,36.18
2018-08-03T08:48:31.676Z,36.44
2018-08-03T08:49:31.712Z,36.36
2018-08-03T08:50:31.751Z,36.34
2018-08-03T08:51:31.788Z,36.41
2018-08-03T08:52:31.822Z,36.51
2018-08-03T08:53:31.859Z,36.47
2018-08-03T08:54:31.898Z,36.59
2018-08-03T08:55:31.935Z,36.93
2018-08-03T08:56:31.971Z,36.92
2018-08-03T08:57:32.012Z,36.77
2018-08-03T08:58:32.049Z,37.14
2018-08-03T08:59:32.111Z,37.15
2018-08-03T09:00:32.123Z,37.04
2018-08-03T09:01:32.161Z,36.84
2018-08-03T09:02:32.199Z,36.36
2018-08-03T09:03:32.234Z,36.52
2018-08-03T09:04:32.274Z,36.17
2018-08-03T09:05:32.312Z,36.09
2018-08-03T09:06:32.351Z,36.17
2018-08-03T09:07:32.492Z,36.06
2018-08-03T09:08:32.422Z,36.39
2018-08-03T09:09:32.459Z,36.65
2018-08-03T09:10:32.497Z,36.89
2018-08-03T09:11:32.534Z,36.89
2018-08-03T09:12:32.574Z,37.23
2018-08-03T09:13:32.612Z,37.57
2018-08-03T09:14:32.651Z,37.61
2018-08-03T09:15:32.688Z,37.79
2018-08-03T09:16:32.726Z,37.80
2018-08-03T09:17:32.764Z,37.72
2018-08-03T09:18:32.825Z,37.90
2018-08-03T09:19:32.836Z,37.93
2018-08-03T09:20:32.877Z,37.75
2018-08-03T09:21:32.913Z,37.54
2018-08-03T09:22:32.951Z,37.27
2018-08-03T09:23:32.990Z,37.26
2018-08-03T09:24:33.076Z,37.68
2018-08-03T09:25:33.068Z,38.05
2018-08-03T09:26:33.111Z,38.21
2018-08-03T09:27:33.143Z,37.93
2018-08-03T09:28:33.212Z,38.08
2018-08-03T09:29:33.219Z,38.22
2018-08-03T09:30:33.258Z,38.21
2018-08-03T09:31:33.292Z,38.35
2018-08-03T09:32:33.333Z,38.27
2018-08-03T09:33:33.368Z,38.39
2018-08-03T09:34:33.408Z,38.36
2018-08-03T09:35:33.447Z,38.44
2018-08-03T09:36:33.543Z,38.24
2018-08-03T09:37:33.520Z,38.56
2018-08-03T09:38:33.559Z,38.71
2018-08-03T09:39:33.596Z,38.24
2018-08-03T09:40:33.635Z,38.12
2018-08-03T09:41:33.673Z,37.99
2018-08-03T09:42:33.711Z,38.09
2018-08-03T09:43:33.749Z,38.20
2018-08-03T09:44:33.789Z,38.44
2018-08-03T09:45:33.830Z,38.50
2018-08-03T09:46:33.864Z,38.65
2018-08-03T09:47:33.905Z,38.66
2018-08-03T09:48:33.941Z,38.58
2018-08-03T09:49:33.981Z,38.59
2018-08-03T09:50:34.020Z,38.37
2018-08-03T09:51:34.058Z,38.46
2018-08-03T09:52:34.094Z,38.37
2018-08-03T09:53:34.135Z,38.39
2018-08-03T09:54:34.243Z,38.58
2018-08-03T09:55:34.212Z,38.49
2018-08-03T09:56:34.249Z,38.68
2018-08-03T09:57:34.289Z,38.58
2018-08-03T09:58:34.325Z,38.61
2018-08-03T09:59:34.363Z,38.50
2018-08-03T10:00:34.405Z,38.59
2018-08-03T10:01:34.440Z,38.50
2018-08-03T10:02:34.481Z,38.87
2018-08-03T10:03:34.518Z,39.11
2018-08-03T10:04:34.560Z,39.34
2018-08-03T10:05:34.596Z,39.31
2018-08-03T10:06:34.635Z,39.12
2018-08-03T10:07:34.677Z,38.90
2018-08-03T10:08:34.709Z,38.89
2018-08-03T10:09:34.749Z,39.16
2018-08-03T10:10:34.788Z,39.23
2018-08-03T10:11:34.827Z,39.40
2018-08-03T10:12:34.983Z,39.13
2018-08-03T10:13:34.904Z,39.27
2018-08-03T10:14:34.944Z,39.20
2018-08-03T10:15:35.037Z,38.90
2018-08-03T10:16:35.022Z,39.01
2018-08-03T10:17:35.059Z,39.03
2018-08-03T10:18:35.099Z,38.77
2018-08-03T10:19:35.137Z,38.83
2018-08-03T10:20:35.174Z,38.78
2018-08-03T10:21:35.213Z,38.33
2018-08-03T10:22:35.251Z,37.84
2018-08-03T10:23:35.289Z,38.17
2018-08-03T10:24:35.330Z,38.70
2018-08-03T10:25:35.366Z,38.83
2018-08-03T10:26:35.409Z,38.37
2018-08-03T10:27:35.446Z,38.36
2018-08-03T10:28:35.482Z,37.86
2018-08-03T10:29:35.559Z,38.12
2018-08-03T10:30:35.565Z,38.17
2018-08-03T10:31:35.597Z,38.47
2018-08-03T10:32:35.639Z,39.12
2018-08-03T10:33:35.677Z,39.12
2018-08-03T10:34:35.719Z,38.97
2018-08-03T10:35:35.754Z,38.36
2018-08-03T10:36:35.793Z,38.35
2018-08-03T10:37:35.831Z,38.28
2018-08-03T10:38:35.870Z,38.36
2018-08-03T10:39:35.905Z,38.59
2018-08-03T10:40:35.945Z,38.93
2018-08-03T10:41:35.984Z,39.03
2018-08-03T10:42:36.024Z,39.13
2018-08-03T10:43:36.062Z,39.15
2018-08-03T10:44:36.100Z,39.20
2018-08-03T10:45:36.139Z,39.04
2018-08-03T10:46:36.279Z,39.13
2018-08-03T10:47:36.213Z,39.64
2018-08-03T10:48:36.270Z,40.01
2018-08-03T10:49:36.290Z,39.99
2018-08-03T10:50:36.330Z,39.93
2018-08-03T10:51:36.370Z,39.69
2018-08-03T10:52:36.408Z,39.74
2018-08-03T10:53:36.465Z,40.13
2018-08-03T10:54:36.490Z,40.77
2018-08-03T10:55:36.524Z,41.13
2018-08-03T10:56:36.562Z,41.19
2018-08-03T10:57:36.601Z,41.41
2018-08-03T10:58:36.639Z,40.89
2018-08-03T10:59:36.676Z,41.19
2018-08-03T11:00:36.719Z,40.94
2018-08-03T11:01:36.780Z,39.93
2018-08-03T11:02:36.794Z,39.67
2018-08-03T11:03:36.834Z,39.60
2018-08-03T11:04:36.871Z,39.75
2018-08-03T11:05:36.912Z,39.91
2018-08-03T11:06:36.950Z,39.37
2018-08-03T11:07:36.995Z,39.11
2018-08-03T11:08:37.029Z,39.84
2018-08-03T11:09:37.067Z,39.79
2018-08-03T11:10:37.105Z,38.77
2018-08-03T11:11:37.148Z,37.84
2018-08-03T11:12:37.181Z,37.26
2018-08-03T11:13:37.284Z,36.71
2018-08-03T11:14:37.263Z,36.84
2018-08-03T11:15:37.314Z,37.54
2018-08-03T11:16:37.336Z,38.43
2018-08-03T11:17:37.378Z,39.06
2018-08-03T11:18:37.415Z,39.42
2018-08-03T11:19:37.451Z,39.67
2018-08-03T11:20:37.492Z,39.83
2018-08-03T11:21:37.526Z,39.99
2018-08-03T11:22:37.568Z,40.05
2018-08-03T11:23:37.603Z,40.36
2018-08-03T11:24:37.643Z,40.21
2018-08-03T11:25:37.681Z,40.15
2018-08-03T11:26:37.720Z,40.59
2018-08-03T11:27:37.757Z,40.85
2018-08-03T11:28:37.796Z,41.31
2018-08-03T11:29:37.888Z,41.49
2018-08-03T11:30:37.872Z,41.88
2018-08-03T11:31:37.907Z,41.88
2018-08-03T11:32:37.946Z,41.99
2018-08-03T11:33:37.986Z,41.91
2018-08-03T11:34:38.025Z,41.75
2018-08-03T11:35:38.061Z,41.92
2018-08-03T11:36:38.258Z,41.18
2018-08-03T11:37:38.142Z,41.18
2018-08-03T11:38:38.181Z,40.93
2018-08-03T11:39:38.215Z,40.91
2018-08-03T11:40:38.258Z,40.85
2018-08-03T11:41:38.295Z,40.72
2018-08-03T11:42:38.336Z,40.34
2018-08-03T11:43:38.371Z,40.25
2018-08-03T11:44:38.410Z,40.43
2018-08-03T11:45:38.449Z,40.34
2018-08-03T11:46:38.488Z,40.48
2018-08-03T11:47:38.530Z,40.62
2018-08-03T11:48:38.567Z,40.70
2018-08-03T11:49:38.605Z,40.88
2018-08-03T11:50:38.649Z,41.04
2018-08-03T11:51:38.683Z,41.34
2018-08-03T11:52:38.725Z,41.50
2018-08-03T11:53:38.763Z,41.44
2018-08-03T11:54:38.804Z,41.26
2018-08-03T11:55:38.840Z,41.56
2018-08-03T11:56:38.882Z,40.98
2018-08-03T11:57:38.921Z,40.84
2018-08-03T11:58:38.960Z,41.13
2018-08-03T11:59:38.998Z,41.28
2018-08-03T12:00:39.040Z,40.93
2018-08-03T12:01:39.075Z,40.66
2018-08-03T12:02:39.114Z,40.25
2018-08-03T12:03:39.152Z,40.59
2018-08-03T12:04:39.192Z,40.43
2018-08-03T12:05:39.232Z,40.24
2018-08-03T12:06:39.414Z,40.45
2018-08-03T12:07:39.310Z,40.01
2018-08-03T12:08:39.348Z,39.56
2018-08-03T12:09:39.390Z,40.13
2018-08-03T12:10:39.427Z,40.15
2018-08-03T12:11:39.466Z,40.10
2018-08-03T12:12:39.508Z,40.13
2018-08-03T12:13:39.544Z,40.10
2018-08-03T12:14:39.583Z,40.02
2018-08-03T12:15:39.623Z,39.91
2018-08-03T12:16:39.663Z,40.01
2018-08-03T12:17:39.700Z,40.24
2018-08-03T12:18:39.742Z,40.94
2018-08-03T12:19:39.780Z,41.34
2018-08-03T12:20:39.819Z,40.89
2018-08-03T12:21:39.855Z,41.07
2018-08-03T12:22:39.896Z,40.21
2018-08-03T12:23:39.953Z,40.34
2018-08-03T12:24:39.971Z,40.75
2018-08-03T12:25:40.011Z,40.51
2018-08-03T12:26:40.052Z,40.93
2018-08-03T12:27:40.089Z,41.26
2018-08-03T12:28:40.128Z,41.08
2018-08-03T12:29:40.163Z,40.59
2018-08-03T12:30:40.205Z,40.45
2018-08-03T12:31:40.313Z,39.91
2018-08-03T12:32:40.278Z,39.68
2018-08-03T12:33:40.317Z,39.87
2018-08-03T12:34:40.359Z,39.49
2018-08-03T12:35:40.395Z,40.15
2018-08-03T12:36:40.435Z,40.32
2018-08-03T12:37:40.472Z,40.98
2018-08-03T12:38:40.512Z,40.86
2018-08-03T12:39:40.549Z,40.91
2018-08-03T12:40:40.584Z,40.48
2018-08-03T12:41:40.626Z,40.38
2018-08-03T12:42:40.661Z,40.62
2018-08-03T12:43:40.701Z,40.85
2018-08-03T12:44:40.739Z,41.16
2018-08-03T12:45:40.776Z,41.00
2018-08-03T12:46:40.814Z,41.01
2018-08-03T12:47:40.854Z,40.79
2018-08-03T12:48:40.893Z,40.65
2018-08-03T12:49:41.183Z,40.60
2018-08-03T12:50:41.052Z,40.36
2018-08-03T12:51:41.081Z,40.59
2018-08-03T12:52:41.151Z,40.72
2018-08-03T12:53:41.083Z,40.94
2018-08-03T12:54:41.121Z,40.63
2018-08-03T12:55:41.156Z,40.57
2018-08-03T12:56:41.303Z,40.10
2018-08-03T12:57:41.232Z,40.18
2018-08-03T12:58:41.279Z,40.41
2018-08-03T12:59:41.464Z,40.74
2018-08-03T13:00:41.347Z,40.78
2018-08-03T13:01:41.382Z,41.01
2018-08-03T13:02:41.492Z,41.23